Time;durP1;ratioP1;P1;durP2;ratioP2;P2;SDS_P1;SDS_P2;PMS_P1;PMS_P2;Temp;Humidity;BMP_temperature;BMP_pressure;BME280_temperature;BME280_humidity;BME280_pressure;Samples;Min_cycle;Max_cycle;Signal;HPM_P1;HPM_P2
2022/05/07 00:01:59;;;;;;;31.80;20.98;;;;;;;10.36;76.85;100044.28;5018345;28;20594;-52
2022/05/07 00:04:25;;;;;;;33.58;19.92;;;;;;;10.52;76.13;100046.34;5016445;28;20033;-52
2022/05/07 00:06:50;;;;;;;34.22;20.05;;;;;;;10.49;75.83;100032.59;5010299;28;20581;-53
2022/05/07 00:09:17;;;;;;;35.78;20.65;;;;;;;10.63;75.11;100034.06;5008259;28;20104;-51
2022/05/07 00:11:42;;;;;;;35.50;21.65;;;;;;;10.62;75.11;100026.28;5006006;28;20502;-50
2022/05/07 00:14:08;;;;;;;30.33;20.45;;;;;;;10.56;75.68;100019.94;5008789;28;20030;-51
2022/05/07 00:19:18;;;;;;;32.38;21.08;;;;;;;10.16;78.11;100023.00;5013870;28;20083;-52
2022/05/07 00:21:43;;;;;;;36.63;21.52;;;;;;;10.08;78.41;100023.25;5012476;28;20025;-50
2022/05/07 00:24:09;;;;;;;34.45;22.10;;;;;;;9.93;78.88;100023.56;5015533;28;20100;-53
2022/05/07 00:26:34;;;;;;;28.77;21.52;;;;;;;9.78;78.59;100020.41;5011698;28;20040;-51
2022/05/07 00:29:00;;;;;;;36.13;21.73;;;;;;;9.61;80.82;100026.31;4997829;28;20038;-53
2022/05/07 00:31:26;;;;;;;34.97;20.80;;;;;;;9.74;82.43;100016.56;5009460;28;20036;-52
2022/05/07 00:33:51;;;;;;;41.50;21.90;;;;;;;9.86;79.74;100023.66;5018188;28;20099;-51
2022/05/07 00:36:17;;;;;;;31.67;20.20;;;;;;;9.88;79.38;100026.94;4989064;28;20458;-50
2022/05/07 00:38:42;;;;;;;35.55;20.38;;;;;;;9.91;80.35;100020.31;5019355;28;20511;-53
2022/05/07 00:41:08;;;;;;;33.65;20.52;;;;;;;10.00;79.19;100013.63;5014954;28;20034;-51
2022/05/07 00:43:38;;;;;;;37.17;20.60;;;;;;;10.03;78.20;100015.88;5010283;28;20037;-52
2022/05/07 00:46:04;;;;;;;36.13;20.63;;;;;;;10.02;77.82;100016.91;4997520;28;20437;-50
2022/05/07 00:48:30;;;;;;;34.70;20.33;;;;;;;9.93;78.23;100018.22;5015439;28;20350;-52
2022/05/07 00:53:40;;;;;;;38.38;21.75;;;;;;;9.66;79.68;100005.06;4997406;28;20049;-52
2022/05/07 00:56:06;;;;;;;35.40;21.38;;;;;;;9.60;79.97;100013.94;5008327;28;20029;-52
2022/05/07 00:58:32;;;;;;;30.80;20.83;;;;;;;9.55;79.92;100010.28;4997087;28;20053;-50
2022/05/07 01:00:57;;;;;;;33.42;21.65;;;;;;;9.49;80.26;100017.34;5006915;28;20033;-53
2022/05/07 01:03:23;;;;;;;37.13;23.20;;;;;;;9.47;81.29;100014.03;5020420;28;20527;-51
2022/05/07 01:05:49;;;;;;;41.05;23.05;;;;;;;9.34;80.37;100009.59;4999748;28;20419;-50
2022/05/07 01:08:14;;;;;;;41.17;25.00;;;;;;;9.25;81.75;100009.03;4998485;28;20025;-52
2022/05/07 01:10:40;;;;;;;33.03;22.33;;;;;;;9.28;83.80;100005.94;4985357;28;20025;-54
2022/05/07 01:13:05;;;;;;;38.80;24.63;;;;;;;9.34;82.29;100006.13;4998305;28;20032;-51
2022/05/07 01:15:31;;;;;;;33.83;22.38;;;;;;;9.24;83.06;100004.72;5007473;28;20471;-52
2022/05/07 01:17:57;;;;;;;38.15;24.65;;;;;;;9.15;82.71;100000.66;5015059;28;20101;-51
2022/05/07 01:20:23;;;;;;;36.40;23.23;;;;;;;9.11;83.35;100002.13;5011606;28;20115;-53
2022/05/07 01:22:48;;;;;;;39.97;25.00;;;;;;;9.21;82.13;99999.81;5009584;28;20029;-51
2022/05/07 01:25:14;;;;;;;47.85;26.95;;;;;;;9.48;81.15;99996.94;5014118;28;20030;-51
2022/05/07 01:27:39;;;;;;;41.08;24.98;;;;;;;9.52;80.20;99995.47;4997270;28;20036;-50
2022/05/07 01:30:06;;;;;;;42.13;25.20;;;;;;;9.50;80.24;99997.56;5014206;28;20488;-51
2022/05/07 01:32:31;;;;;;;38.70;23.42;;;;;;;9.45;81.43;99992.84;5008080;28;20022;-54
2022/05/07 01:34:57;;;;;;;35.53;23.27;;;;;;;9.06;81.61;99988.53;5007843;28;20049;-54
2022/05/07 01:37:23;;;;;;;36.10;22.95;;;;;;;8.97;82.96;99981.81;4989759;28;20040;-53
2022/05/07 01:39:49;;;;;;;36.15;24.05;;;;;;;8.80;82.60;99982.31;5014843;28;20065;-50
2022/05/07 01:42:14;;;;;;;39.90;23.60;;;;;;;8.77;83.50;99987.25;5010900;28;20056;-51
2022/05/07 01:44:40;;;;;;;34.92;22.33;;;;;;;8.76;84.84;99983.78;5011774;28;20404;-50
2022/05/07 01:49:49;;;;;;;39.20;23.42;;;;;;;8.53;84.47;99983.44;5003141;28;20037;-53
2022/05/07 01:52:15;;;;;;;40.55;24.33;;;;;;;8.40;84.89;99989.63;5013740;28;20029;-51
2022/05/07 01:54:41;;;;;;;40.40;24.13;;;;;;;8.36;85.27;99986.56;5005135;28;20113;-51
2022/05/07 01:57:08;;;;;;;36.13;22.48;;;;;;;8.34;87.24;99983.25;5017053;28;20029;-50
2022/05/07 01:59:33;;;;;;;36.28;22.90;;;;;;;8.41;88.02;99991.28;5012080;28;20444;-51
2022/05/07 02:01:59;;;;;;;38.60;25.45;;;;;;;8.31;85.81;99989.03;5020590;28;20390;-51
2022/05/07 02:04:24;;;;;;;39.72;25.17;;;;;;;8.32;86.75;99987.16;5010139;28;20049;-50
2022/05/07 02:06:50;;;;;;;38.00;25.25;;;;;;;8.23;87.52;99997.25;5008768;28;20022;-53
2022/05/07 02:09:16;;;;;;;42.70;27.38;;;;;;;8.09;87.11;99990.31;5007156;28;20125;-52
2022/05/07 02:11:41;;;;;;;44.35;27.77;;;;;;;7.95;88.47;99994.81;5013958;28;20121;-51
2022/05/07 02:14:07;;;;;;;45.58;28.52;;;;;;;8.04;88.20;99998.94;5011951;28;20581;-52
2022/05/07 02:16:33;;;;;;;46.88;26.77;;;;;;;8.09;87.61;99993.78;5017726;28;20060;-51
2022/05/07 02:18:59;;;;;;;43.17;27.58;;;;;;;8.02;87.29;99994.81;4991905;28;20036;-53
2022/05/07 02:21:24;;;;;;;46.45;28.08;;;;;;;7.94;88.12;99998.53;5010872;28;20487;-53
2022/05/07 02:23:50;;;;;;;43.13;27.13;;;;;;;7.99;88.46;100002.22;5013219;28;20296;-52
2022/05/07 02:26:16;;;;;;;44.00;27.90;;;;;;;7.89;87.74;99996.47;5006084;28;20091;-52
2022/05/07 02:28:41;;;;;;;46.28;27.85;;;;;;;7.89;87.28;99996.47;5011542;28;20439;-52
2022/05/07 02:31:07;;;;;;;46.60;27.23;;;;;;;7.81;87.72;99996.66;5014861;28;20045;-52
2022/05/07 02:33:33;;;;;;;46.25;26.50;;;;;;;7.83;88.60;99991.94;5006718;28;20693;-49
2022/05/07 02:35:58;;;;;;;49.33;28.30;;;;;;;7.86;88.32;99996.03;5009250;28;20087;-53
2022/05/07 02:38:25;;;;;;;43.13;27.77;;;;;;;7.99;87.96;99988.88;5014170;28;20209;-52
2022/05/07 02:43:42;;;;;;;48.03;26.00;;;;;;;8.05;88.62;99983.72;4997034;28;20157;-53
2022/05/07 02:46:09;;;;;;;46.03;27.65;;;;;;;8.14;88.88;99983.31;5005412;28;20474;-51
2022/05/07 02:48:36;;;;;;;39.70;25.88;;;;;;;8.04;87.27;99982.91;5006412;28;20030;-51
2022/05/07 02:51:02;;;;;;;43.90;27.50;;;;;;;8.11;89.03;99990.88;5015403;28;20484;-52
2022/05/07 02:53:28;;;;;;;39.63;26.73;;;;;;;7.91;86.65;99988.25;4999300;28;20403;-52
2022/05/07 02:55:53;;;;;;;38.75;25.13;;;;;;;7.67;87.36;99995.03;5007784;28;20137;-52
2022/05/07 02:58:19;;;;;;;42.55;25.17;;;;;;;7.47;87.13;99993.16;5009309;28;20037;-53
2022/05/07 03:00:46;;;;;;;40.38;24.67;;;;;;;7.50;87.80;99992.75;4987382;28;20385;-53
2022/05/07 03:03:11;;;;;;;39.08;25.83;;;;;;;7.40;87.50;99996.84;5010173;28;20040;-50
2022/05/07 03:05:37;;;;;;;43.58;26.67;;;;;;;7.21;88.34;99998.44;5011770;28;20108;-50
2022/05/07 03:08:03;;;;;;;45.28;26.90;;;;;;;7.13;90.13;99996.78;5023375;28;20519;-52
2022/05/07 03:10:28;;;;;;;50.38;33.40;;;;;;;7.25;92.15;99994.34;4993627;28;20075;-50
2022/05/07 03:12:54;;;;;;;49.67;30.58;;;;;;;7.23;92.11;99991.06;4997359;28;20021;-49
2022/05/07 03:15:20;;;;;;;56.42;32.97;;;;;;;7.23;92.05;99991.06;5004135;28;20112;-51
2022/05/07 03:17:45;;;;;;;43.60;29.08;;;;;;;7.21;90.62;99993.91;5009263;28;20447;-49
2022/05/07 03:20:54;;;;;;;46.67;30.17;;;;;;;7.09;90.21;99996.38;5005723;28;20442;-50
2022/05/07 03:23:20;;;;;;;48.65;27.67;;;;;;;7.12;90.75;99995.16;5004222;28;20061;-49
2022/05/07 03:25:45;;;;;;;44.90;28.95;;;;;;;6.95;93.46;99992.00;5008228;28;20124;-52
2022/05/07 03:28:11;;;;;;;47.90;29.13;;;;;;;7.09;93.51;99993.72;4989470;28;20025;-52
2022/05/07 03:30:37;;;;;;;57.83;31.70;;;;;;;7.16;93.03;99984.91;5009575;28;20039;-51
2022/05/07 03:33:02;;;;;;;43.55;28.75;;;;;;;7.13;92.12;99997.59;5015728;28;20041;-50
2022/05/07 03:35:29;;;;;;;42.45;27.73;;;;;;;7.13;92.20;99989.59;5016997;28;20037;-52
2022/05/07 03:37:55;;;;;;;51.58;28.95;;;;;;;7.04;91.47;99993.50;5007077;28;20076;-50
2022/05/07 03:40:21;;;;;;;48.47;31.10;;;;;;;6.96;92.70;99990.16;5007897;28;20026;-50
2022/05/07 03:42:47;;;;;;;51.08;31.73;;;;;;;7.05;93.92;99989.78;5004513;28;20115;-50
2022/05/07 03:45:12;;;;;;;45.92;29.52;;;;;;;7.19;92.62;99989.81;5012182;28;20042;-52
2022/05/07 03:47:39;;;;;;;47.10;30.05;;;;;;;7.28;91.52;99991.28;5006036;28;20405;-52
2022/05/07 03:50:05;;;;;;;40.92;26.13;;;;;;;7.10;89.75;100003.34;5012633;28;20443;-52
2022/05/07 03:55:16;;;;;;;44.80;27.10;;;;;;;7.07;89.32;100003.75;5012935;28;20053;-53
2022/05/07 03:57:41;;;;;;;51.85;28.58;;;;;;;6.88;91.09;99999.16;5006154;28;20033;-51
2022/05/07 04:00:08;;;;;;;47.30;31.05;;;;;;;6.90;93.19;100003.28;5005150;28;20022;-50
2022/05/07 04:02:35;;;;;;;47.83;29.60;;;;;;;6.91;93.50;100006.75;5005597;28;20037;-51
2022/05/07 04:05:02;;;;;;;50.13;31.42;;;;;;;7.04;93.81;99998.81;5011481;28;20458;-53
2022/05/07 04:07:28;;;;;;;54.47;30.40;;;;;;;7.31;93.72;100002.38;5006639;28;20495;-50
2022/05/07 04:09:55;;;;;;;50.00;30.65;;;;;;;7.60;91.72;99999.53;5012723;28;20486;-53
2022/05/07 04:12:21;;;;;;;43.33;28.80;;;;;;;8.02;86.03;99992.97;5015820;28;20069;-50
2022/05/07 04:14:47;;;;;;;44.40;27.70;;;;;;;8.29;84.45;99996.41;4998360;28;20033;-51
2022/05/07 04:17:12;;;;;;;46.47;26.98;;;;;;;8.95;80.92;99999.94;5003723;28;20049;-49
2022/05/07 04:19:38;;;;;;;41.22;26.17;;;;;;;9.08;79.64;99991.84;5015037;28;20390;-52
2022/05/07 04:22:04;;;;;;;37.17;24.65;;;;;;;9.67;76.98;100001.34;4997285;28;20443;-50
2022/05/07 04:24:31;;;;;;;39.65;25.10;;;;;;;10.15;76.16;100000.72;5016635;28;20033;-52
2022/05/07 04:26:57;;;;;;;34.78;23.67;;;;;;;10.21;75.02;100003.56;4992335;28;20037;-53
2022/05/07 04:29:22;;;;;;;36.03;22.63;;;;;;;10.67;72.50;100002.28;5005965;28;20044;-49
2022/05/07 04:31:48;;;;;;;42.30;23.58;;;;;;;10.93;71.35;100014.53;5010591;28;20030;-53
2022/05/07 04:34:13;;;;;;;30.50;21.55;;;;;;;11.38;69.39;100014.16;5006003;28;20022;-50
2022/05/07 04:36:39;;;;;;;30.70;21.63;;;;;;;11.69;66.40;100012.28;5009632;28;20180;-50
2022/05/07 04:39:05;;;;;;;30.70;21.20;;;;;;;12.08;66.11;100016.19;4993583;28;20365;-50
2022/05/07 04:41:30;;;;;;;29.05;18.92;;;;;;;11.65;67.97;100009.22;5009311;28;20368;-50
2022/05/07 04:43:56;;;;;;;28.70;20.27;;;;;;;10.24;74.94;100019.22;5007860;28;20487;-52
2022/05/07 04:46:21;;;;;;;29.88;19.48;;;;;;;11.30;70.60;100014.47;5008807;28;20502;-53
2022/05/07 04:48:47;;;;;;;32.38;20.63;;;;;;;10.70;74.67;100020.59;5014225;28;20117;-50
2022/05/07 04:51:13;;;;;;;25.30;20.40;;;;;;;12.30;68.46;100019.94;5018458;28;20380;-50
2022/05/07 04:53:38;;;;;;;27.85;19.73;;;;;;;13.08;63.92;100023.19;5016253;28;20041;-51
2022/05/07 04:56:04;;;;;;;29.33;20.45;;;;;;;13.35;61.14;100020.78;5016774;28;20531;-51
2022/05/07 04:58:29;;;;;;;31.50;20.95;;;;;;;13.43;61.50;100024.94;4991543;28;20053;-50
2022/05/07 05:00:55;;;;;;;28.10;20.38;;;;;;;13.26;61.61;100019.50;5012161;28;20456;-52
2022/05/07 05:03:21;;;;;;;24.80;19.38;;;;;;;13.43;62.46;100024.94;5008189;28;20091;-52
2022/05/07 05:05:46;;;;;;;30.30;20.15;;;;;;;13.91;60.72;100026.31;5018703;28;20029;-51
2022/05/07 05:08:15;;;;;;;32.75;21.52;;;;;;;14.35;59.98;100037.22;5010380;28;20053;-52
2022/05/07 05:10:40;;;;;;;27.45;18.70;;;;;;;14.81;58.89;100031.66;5002082;28;20092;-52
2022/05/07 05:13:06;;;;;;;25.20;18.10;;;;;;;15.23;56.40;100031.91;5007556;28;20380;-52
2022/05/07 05:15:32;;;;;;;23.80;18.05;;;;;;;15.22;56.12;100035.66;5007722;28;20424;-52
2022/05/07 05:17:59;;;;;;;25.20;18.67;;;;;;;15.97;53.47;100030.44;5014242;28;20034;-52
2022/05/07 05:20:26;;;;;;;25.70;18.25;;;;;;;16.25;53.05;100031.19;5010277;28;20084;-53
2022/05/07 05:22:51;;;;;;;22.13;16.60;;;;;;;17.07;51.45;100032.44;5008426;28;20464;-52
2022/05/07 05:25:19;;;;;;;25.42;16.92;;;;;;;17.16;50.11;100033.56;5018633;28;20349;-52
2022/05/07 05:27:45;;;;;;;24.70;16.58;;;;;;;17.40;49.69;100039.31;5016512;28;20490;-51
2022/05/07 05:30:11;;;;;;;23.05;16.73;;;;;;;17.08;50.71;100049.53;5000223;28;20033;-51
2022/05/07 05:32:37;;;;;;;22.77;16.25;;;;;;;17.07;50.57;100047.88;5013385;28;20057;-53
2022/05/07 05:35:03;;;;;;;20.52;16.15;;;;;;;17.06;50.49;100047.06;4996813;28;20152;-50
2022/05/07 05:37:30;;;;;;;23.77;17.60;;;;;;;16.93;51.01;100042.97;5012888;28;20471;-51
2022/05/07 05:39:55;;;;;;;20.63;15.60;;;;;;;16.49;52.46;100047.84;4995116;28;20026;-53
2022/05/07 05:42:22;;;;;;;20.27;15.75;;;;;;;17.33;50.39;100041.47;4991665;28;20025;-49
2022/05/07 05:44:47;;;;;;;27.15;16.45;;;;;;;16.73;52.30;100043.66;5016724;28;20499;-50
2022/05/07 05:47:13;;;;;;;17.80;15.18;;;;;;;16.64;53.57;100039.00;4994840;28;20037;-52
2022/05/07 05:49:38;;;;;;;21.88;16.35;;;;;;;16.91;52.76;100039.69;4990270;28;20057;-53
2022/05/07 05:52:04;;;;;;;20.45;15.52;;;;;;;17.10;52.15;100040.06;5014254;28;20092;-52
2022/05/07 05:54:30;;;;;;;20.35;14.25;;;;;;;17.53;51.37;100043.41;4993473;28;20064;-49
2022/05/07 05:56:57;;;;;;;19.63;13.77;;;;;;;18.42;50.03;100052.13;5012622;28;20446;-53
2022/05/07 05:59:23;;;;;;;19.17;13.65;;;;;;;18.73;49.61;100047.41;5012520;28;20105;-51
2022/05/07 06:01:48;;;;;;;18.25;12.93;;;;;;;19.23;48.99;100052.13;5013940;28;20021;-51
2022/05/07 06:04:14;;;;;;;15.20;12.38;;;;;;;18.71;50.63;100051.50;4988490;28;20373;-54
2022/05/07 06:06:41;;;;;;;14.68;11.60;;;;;;;19.98;49.28;100054.66;5019288;28;20034;-52
2022/05/07 06:09:07;;;;;;;16.77;12.65;;;;;;;20.18;46.19;100045.50;4997772;28;20472;-53
2022/05/07 06:11:33;;;;;;;15.60;12.77;;;;;;;21.81;42.84;100052.78;5010862;28;20030;-52
2022/05/07 06:13:58;;;;;;;16.70;12.85;;;;;;;21.39;43.84;100049.06;4979882;28;20034;-51
2022/05/07 06:16:27;;;;;;;19.63;13.95;;;;;;;21.23;43.14;100062.88;5004810;28;20065;-52
2022/05/07 06:18:53;;;;;;;17.47;14.50;;;;;;;21.20;44.27;100060.72;4999036;28;20490;-54
2022/05/07 06:21:18;;;;;;;17.95;14.38;;;;;;;20.44;46.59;100063.22;5006648;28;20026;-50
2022/05/07 06:23:44;;;;;;;18.00;15.15;;;;;;;19.16;48.22;100069.53;4987389;28;20116;-53
2022/05/07 06:28:54;;;;;;;20.02;15.32;;;;;;;20.92;45.12;100067.06;5015588;28;20552;-49
2022/05/07 06:31:19;;;;;;;21.50;15.35;;;;;;;21.03;45.96;100069.38;4998559;28;20026;-52
2022/05/07 06:33:45;;;;;;;18.50;15.52;;;;;;;21.42;44.42;100064.84;5003463;28;20140;-50
2022/05/07 06:36:10;;;;;;;20.80;15.98;;;;;;;21.67;43.60;100067.19;5003737;28;21522;-53
2022/05/07 06:38:36;;;;;;;19.08;15.85;;;;;;;21.41;43.87;100061.28;5010793;28;20326;-53
2022/05/07 06:41:03;;;;;;;18.95;14.95;;;;;;;21.09;45.46;100072.84;4986433;28;20033;-51
2022/05/07 06:43:30;;;;;;;21.70;15.25;;;;;;;20.17;46.42;100068.38;4993788;28;20021;-53
2022/05/07 06:45:56;;;;;;;21.65;15.88;;;;;;;20.82;45.42;100063.38;5007945;28;20033;-50
2022/05/07 06:48:22;;;;;;;25.50;16.55;;;;;;;20.13;46.67;100068.13;5012037;28;20053;-52
2022/05/07 06:50:49;;;;;;;25.02;18.17;;;;;;;20.75;45.97;100068.38;5013150;28;20396;-54
2022/05/07 06:53:14;;;;;;;22.92;17.48;;;;;;;20.07;47.14;100068.44;5009926;28;20076;-52
2022/05/07 06:55:55;;;;;;;20.80;16.60;;;;;;;20.10;47.47;100067.91;5007934;28;20369;-51
2022/05/07 06:58:25;;;;;;;21.38;16.95;;;;;;;20.32;46.16;100070.97;5013411;28;20025;-52
2022/05/07 07:00:51;;;;;;;20.80;17.45;;;;;;;21.59;44.35;100070.59;5016497;28;20030;-51
2022/05/07 07:03:17;;;;;;;19.83;16.52;;;;;;;21.60;44.06;100066.75;5011929;28;20495;-53
2022/05/07 07:05:43;;;;;;;23.45;16.27;;;;;;;22.65;42.04;100073.78;5006153;28;20064;-53
2022/05/07 07:08:11;;;;;;;21.10;17.23;;;;;;;21.86;42.90;100064.44;4988836;28;20034;-52
2022/05/07 07:10:37;;;;;;;21.77;16.27;;;;;;;22.92;41.77;100073.78;5013895;28;21013;-51
2022/05/07 07:13:04;;;;;;;21.45;16.92;;;;;;;22.68;41.80;100068.50;5015755;28;20093;-51
2022/05/07 07:15:29;;;;;;;23.33;17.33;;;;;;;22.97;40.97;100070.13;5005970;28;20065;-51
2022/05/07 07:17:55;;;;;;;21.23;16.67;;;;;;;19.75;46.34;100070.59;5005636;28;20072;-51
2022/05/07 07:20:21;;;;;;;22.45;17.15;;;;;;;19.18;49.59;100069.28;5011118;28;20029;-53
2022/05/07 07:22:46;;;;;;;24.63;17.35;;;;;;;21.24;45.05;100064.50;5012052;28;20109;-51
2022/05/07 07:25:12;;;;;;;23.92;18.67;;;;;;;20.95;44.90;100063.78;5016424;28;20029;-50
2022/05/07 07:27:37;;;;;;;21.30;17.65;;;;;;;21.79;43.63;100065.91;5014792;28;20037;-51
2022/05/07 07:30:03;;;;;;;26.33;17.42;;;;;;;23.64;40.50;100066.78;5006016;28;20022;-51
2022/05/07 07:32:29;;;;;;;23.92;16.95;;;;;;;23.09;41.57;100066.91;4979042;28;20392;-53
2022/05/07 07:34:55;;;;;;;25.38;18.13;;;;;;;22.25;42.17;100057.81;5012893;28;20044;-53
2022/05/07 07:37:20;;;;;;;23.98;18.52;;;;;;;21.79;44.67;100068.66;4994902;28;20033;-50
2022/05/07 07:39:46;;;;;;;26.73;18.85;;;;;;;21.83;44.24;100065.03;4993472;28;20034;-52
2022/05/07 07:42:11;;;;;;;23.63;18.33;;;;;;;23.34;41.09;100058.16;4997280;28;20128;-51
2022/05/07 07:44:37;;;;;;;24.15;18.52;;;;;;;22.79;42.28;100060.94;5011624;28;20077;-53
2022/05/07 07:49:47;;;;;;;26.60;19.15;;;;;;;23.52;40.06;100066.53;5001881;28;20157;-49
2022/05/07 07:52:13;;;;;;;26.17;17.83;;;;;;;23.66;40.78;100064.53;5010367;28;20489;-50
2022/05/07 07:54:39;;;;;;;22.35;17.58;;;;;;;24.52;39.56;100067.09;4990457;28;20033;-51
2022/05/07 07:57:05;;;;;;;25.20;19.27;;;;;;;23.92;40.47;100064.78;4991368;28;20088;-52
2022/05/07 07:59:30;;;;;;;26.17;20.08;;;;;;;23.29;40.87;100071.94;4996834;28;20467;-50
2022/05/07 08:01:56;;;;;;;25.17;19.40;;;;;;;23.53;41.39;100068.13;5014553;28;20038;-51
2022/05/07 08:04:25;;;;;;;25.30;19.63;;;;;;;22.88;43.31;100055.56;5012461;28;20036;-52
2022/05/07 08:11:40;;;;;;;26.08;20.40;;;;;;;22.71;42.92;100061.63;5021457;28;20080;-53
2022/05/07 08:12:22;;;;;;;26.00;19.27;;;;;;;22.75;41.19;100060.72;5014418;28;20036;-50
2022/05/07 08:14:47;;;;;;;32.30;20.90;;;;;;;22.75;42.54;100060.72;5012386;28;20033;-50
2022/05/07 08:17:14;;;;;;;25.08;18.77;;;;;;;22.74;41.52;100058.28;5012989;28;20428;-52
2022/05/07 08:19:43;;;;;;;26.33;18.05;;;;;;;23.40;40.50;100056.13;5016935;28;20597;-52
2022/05/07 08:22:09;;;;;;;26.40;19.50;;;;;;;21.99;43.03;100057.44;5009812;28;20311;-50
2022/05/07 08:24:35;;;;;;;25.55;19.35;;;;;;;22.23;42.27;100056.50;5009889;28;20279;-50
2022/05/07 08:27:02;;;;;;;32.88;19.98;;;;;;;21.91;43.69;100055.34;5015750;28;20630;-54
2022/05/07 08:29:27;;;;;;;27.20;19.30;;;;;;;22.48;42.59;100056.03;5024016;28;20040;-52
2022/05/07 08:31:53;;;;;;;25.88;18.73;;;;;;;23.22;40.42;100058.69;4990594;28;21620;-53
2022/05/07 08:34:19;;;;;;;25.90;20.00;;;;;;;21.22;44.56;100061.25;5010815;28;20383;-53
2022/05/07 08:36:44;;;;;;;22.48;16.83;;;;;;;22.69;42.35;100063.84;5010461;28;20030;-51
2022/05/07 08:39:12;;;;;;;18.23;13.07;;;;;;;22.36;40.05;100066.63;5007911;28;20034;-49
2022/05/07 08:41:38;;;;;;;22.90;15.73;;;;;;;22.60;40.80;100064.53;5014500;28;20483;-50
2022/05/07 08:44:04;;;;;;;18.58;13.40;;;;;;;22.86;40.14;100052.31;4997727;28;20073;-53
2022/05/07 08:46:29;;;;;;;21.08;11.82;;;;;;;23.15;38.43;100054.75;5007461;28;20063;-51
2022/05/07 08:48:56;;;;;;;21.02;12.75;;;;;;;23.57;38.22;100066.41;5003545;28;20100;-53
2022/05/07 08:51:21;;;;;;;18.85;11.90;;;;;;;23.08;38.62;100062.56;5012841;28;20084;-51
2022/05/07 08:53:53;;;;;;;19.63;13.90;;;;;;;23.74;38.84;100061.13;4991152;28;20097;-53
2022/05/07 08:56:18;;;;;;;21.50;15.10;;;;;;;24.38;38.24;100055.38;5013624;28;20044;-49
2022/05/07 08:58:51;;;;;;;24.27;15.10;;;;;;;23.14;38.59;100062.16;4999072;28;20105;-53
2022/05/07 09:01:17;;;;;;;20.33;14.02;;;;;;;23.34;39.62;100058.16;5009298;28;20120;-53
2022/05/07 09:03:44;;;;;;;21.65;14.10;;;;;;;24.07;38.63;100058.13;5011795;28;20101;-53
2022/05/07 09:06:19;;;;;;;18.85;12.48;;;;;;;23.09;38.16;100045.84;4997247;28;20026;-53
2022/05/07 09:08:48;;;;;;;23.80;13.93;;;;;;;22.84;40.52;100044.44;5015376;28;20405;-52
2022/05/07 09:11:14;;;;;;;22.13;10.90;;;;;;;23.06;38.52;100045.63;4997783;28;20108;-52
2022/05/07 09:13:41;;;;;;;17.67;11.73;;;;;;;22.65;39.19;100049.19;4998344;28;20030;-54
2022/05/07 09:16:06;;;;;;;16.30;11.95;;;;;;;22.20;40.14;100046.19;5005453;28;20025;-53
2022/05/07 09:18:32;;;;;;;23.83;15.32;;;;;;;22.05;42.34;100037.13;5014611;28;20072;-52
2022/05/07 09:21:23;;;;;;;16.33;11.88;;;;;;;22.83;41.51;100038.13;5016709;28;20033;-53
2022/05/07 09:24:09;;;;;;;16.92;10.60;;;;;;;24.29;38.19;100038.91;5005775;28;20038;-53
2022/05/07 09:26:44;;;;;;;13.68;8.68;;;;;;;23.96;38.81;100041.13;5008801;28;20475;-53
2022/05/07 09:29:11;;;;;;;13.23;7.88;;;;;;;24.86;35.04;100040.13;4997083;28;20021;-54
2022/05/07 09:31:37;;;;;;;12.82;7.97;;;;;;;24.67;35.18;100038.47;5021128;28;20025;-53
2022/05/07 09:37:22;;;;;;;11.38;4.22;;;;;;;22.99;34.98;100038.69;4991518;28;20558;-51
2022/05/07 09:39:49;;;;;;;10.13;4.80;;;;;;;22.18;35.10;100032.78;5011907;28;20100;-52
2022/05/07 09:42:21;;;;;;;9.23;5.10;;;;;;;22.21;36.19;100034.16;5012836;28;20467;-53
2022/05/07 09:44:46;;;;;;;8.85;5.03;;;;;;;22.41;35.88;100036.50;5011864;28;20048;-53
2022/05/07 09:47:12;;;;;;;9.95;5.07;;;;;;;23.03;35.27;100025.19;4989113;28;20026;-53
2022/05/07 09:50:19;;;;;;;6.93;4.20;;;;;;;21.68;36.59;100029.81;5009605;28;20476;-52
2022/05/07 09:52:26;;;;;;;8.20;5.13;;;;;;;23.54;35.52;100028.69;5018605;28;20037;-53
2022/05/07 09:57:37;;;;;;;9.82;3.90;;;;;;;22.47;35.23;100027.13;5013009;28;20040;-52
2022/05/07 10:00:08;;;;;;;9.38;5.32;;;;;;;21.39;38.55;100027.25;5006652;28;20081;-53
2022/05/07 10:02:36;;;;;;;10.23;4.72;;;;;;;22.43;36.89;100017.91;4989649;28;20044;-52
2022/05/07 10:05:29;;;;;;;7.95;5.32;;;;;;;21.49;36.78;100022.47;5012473;28;20112;-52
2022/05/07 10:08:03;;;;;;;10.15;4.40;;;;;;;22.40;35.91;100032.16;4984351;28;20478;-50
2022/05/07 10:10:29;;;;;;;13.65;4.47;;;;;;;24.35;33.27;100025.09;5003119;28;20029;-52
2022/05/07 10:13:00;;;;;;;9.27;5.05;;;;;;;22.42;36.08;100027.22;4978559;28;20026;-52
2022/05/07 10:15:26;;;;;;;10.73;4.90;;;;;;;21.92;35.80;100021.53;4977327;28;20069;-52
2022/05/07 10:18:07;;;;;;;8.32;4.05;;;;;;;22.52;34.26;100024.28;5004581;28;20034;-50
2022/05/07 10:20:52;;;;;;;7.55;4.05;;;;;;;22.26;34.36;100012.22;4990307;28;20496;-51
2022/05/07 10:23:30;;;;;;;10.77;4.32;;;;;;;21.67;35.09;100017.28;5000182;28;20061;-53
2022/05/07 10:25:57;;;;;;;9.95;4.22;;;;;;;23.03;33.39;100008.78;5005028;28;20120;-50
2022/05/07 10:28:22;;;;;;;8.07;4.20;;;;;;;21.93;35.28;100009.47;5009837;28;20388;-53
2022/05/07 10:30:57;;;;;;;6.05;3.92;;;;;;;22.31;35.57;100014.84;4998185;28;20057;-52
2022/05/07 10:33:24;;;;;;;9.18;3.80;;;;;;;22.21;35.62;100004.13;5007940;28;20546;-53
2022/05/07 10:35:58;;;;;;;7.70;3.47;;;;;;;23.44;34.26;100008.69;5005958;28;20403;-53
2022/05/07 10:38:26;;;;;;;7.53;3.53;;;;;;;24.29;32.28;100011.53;5016087;28;20136;-52
2022/05/07 10:40:56;;;;;;;5.82;3.70;;;;;;;23.04;34.48;100013.97;5006644;28;20072;-53
2022/05/07 10:43:40;;;;;;;10.45;3.58;;;;;;;24.35;33.35;100008.66;5008856;28;20030;-53
2022/05/07 10:46:07;;;;;;;6.88;3.60;;;;;;;23.88;33.34;100006.28;4971528;28;20093;-51
2022/05/07 10:48:53;;;;;;;8.50;3.67;;;;;;;22.76;34.44;100004.13;4972099;28;20034;-52
2022/05/07 10:51:32;;;;;;;9.52;3.72;;;;;;;23.07;33.78;100007.06;4964519;28;20038;-51
2022/05/07 10:54:03;;;;;;;10.80;4.10;;;;;;;22.69;35.12;99998.25;4975311;28;20065;-53
2022/05/07 10:56:33;;;;;;;7.63;3.10;;;;;;;23.50;33.30;100006.63;4963809;28;20396;-50
2022/05/07 10:58:58;;;;;;;;;;;;;;;22.84;34.46;99992.50;4973870;28;20042;-52
2022/05/07 11:01:25;;;;;;;5.38;3.25;;;;;;;24.30;32.26;100002.16;4966958;28;19918;-55
2022/05/07 11:04:06;;;;;;;6.35;3.38;;;;;;;23.79;32.33;99997.22;4966368;28;20027;-52
2022/05/07 11:06:44;;;;;;;10.45;3.65;;;;;;;23.68;32.30;99993.88;4961963;28;20021;-52
2022/05/07 11:09:22;;;;;;;6.45;3.20;;;;;;;23.32;32.58;99989.28;4972304;28;20101;-50
2022/05/07 11:11:51;;;;;;;4.93;3.08;;;;;;;22.43;34.09;99996.03;4975629;28;20346;-52
2022/05/07 11:14:25;;;;;;;4.70;3.00;;;;;;;23.54;31.98;99990.41;4967953;28;20114;-53
2022/05/07 11:16:53;;;;;;;8.40;3.30;;;;;;;23.70;32.08;99991.66;4952849;28;20049;-54
2022/05/07 11:19:35;;;;;;;7.53;3.15;;;;;;;24.01;32.16;99990.91;4962389;28;20042;-51
2022/05/07 11:22:05;;;;;;;6.28;3.05;;;;;;;24.39;31.00;99982.22;4963537;28;20026;-52
2022/05/07 11:24:31;;;;;;;9.23;3.20;;;;;;;23.57;32.67;99979.66;4966706;28;20283;-52
2022/05/07 11:27:05;;;;;;;8.00;3.05;;;;;;;23.71;32.85;99974.09;4961756;28;20030;-52
2022/05/07 11:29:31;;;;;;;11.27;3.10;;;;;;;23.86;32.51;99970.22;4957897;28;20450;-52
2022/05/07 11:32:04;;;;;;;9.18;3.63;;;;;;;23.39;33.58;99977.94;4967766;28;20448;-50
2022/05/07 11:34:43;;;;;;;8.70;3.35;;;;;;;23.02;33.45;99975.19;4968400;28;20042;-50
2022/05/07 11:37:16;;;;;;;5.43;3.13;;;;;;;23.67;33.11;99967.66;4966393;28;20061;-53
2022/05/07 11:39:58;;;;;;;8.60;3.20;;;;;;;23.63;33.26;99969.38;4964310;28;20033;-53
2022/05/07 11:42:34;;;;;;;8.40;3.33;;;;;;;24.21;31.70;99965.75;4975606;28;20462;-52
2022/05/07 11:48:07;;;;;;;8.38;2.97;;;;;;;24.08;31.53;99963.88;5006713;28;20061;-54
2022/05/07 11:50:41;;;;;;;5.00;2.67;;;;;;;24.51;31.00;99964.09;5004437;28;20127;-54